createdAt,value
2018-07-03T00:02:15.613Z,18.00
2018-07-03T00:04:48.572Z,17.90
2018-07-03T00:07:17.180Z,18.00
2018-07-03T00:09:46.211Z,17.90
2018-07-03T00:12:14.732Z,17.90
2018-07-03T00:14:43.198Z,17.80
2018-07-03T00:17:17.156Z,17.80
2018-07-03T00:19:48.418Z,17.80
2018-07-03T00:22:17.851Z,17.80
2018-07-03T00:24:46.761Z,17.80
2018-07-03T00:27:17.034Z,17.80
2018-07-03T00:29:45.586Z,17.80
2018-07-03T00:32:14.461Z,17.80
2018-07-03T00:34:43.152Z,17.70
2018-07-03T00:37:11.770Z,17.60
2018-07-03T00:39:40.223Z,17.60
2018-07-03T00:42:08.900Z,17.60
2018-07-03T00:44:37.336Z,17.60
2018-07-03T00:47:06.021Z,17.60
2018-07-03T00:49:34.697Z,17.60
2018-07-03T00:52:03.483Z,17.50
2018-07-03T00:54:32.640Z,17.60
2018-07-03T00:57:01.025Z,17.50
2018-07-03T00:59:29.852Z,17.40
2018-07-03T01:01:59.426Z,17.40
2018-07-03T01:04:28.158Z,17.40
2018-07-03T01:06:57.492Z,17.40
2018-07-03T01:09:25.941Z,17.30
2018-07-03T01:11:55.385Z,17.20
2018-07-03T01:14:24.030Z,17.10
2018-07-03T01:16:53.146Z,17.10
2018-07-03T01:19:22.120Z,17.10
2018-07-03T01:21:50.969Z,17.10
2018-07-03T01:24:19.484Z,17.00
2018-07-03T01:26:48.042Z,17.00
2018-07-03T01:29:16.456Z,17.00
2018-07-03T01:31:44.890Z,16.90
2018-07-03T01:34:13.969Z,16.90
2018-07-03T01:36:43.001Z,16.90
2018-07-03T01:39:12.642Z,16.80
2018-07-03T01:41:41.107Z,16.80
2018-07-03T01:44:11.176Z,16.80
2018-07-03T01:46:39.794Z,16.80
2018-07-03T01:49:08.245Z,16.80
2018-07-03T01:51:36.732Z,16.80
2018-07-03T01:54:05.744Z,16.70
2018-07-03T01:56:34.191Z,16.80
2018-07-03T01:59:02.946Z,16.70
2018-07-03T02:01:32.354Z,16.70
2018-07-03T02:04:05.542Z,16.70
2018-07-03T02:06:38.168Z,16.70
2018-07-03T02:09:11.347Z,16.70
2018-07-03T02:11:40.164Z,16.60
2018-07-03T02:14:08.693Z,16.60
2018-07-03T02:16:37.118Z,16.60
2018-07-03T02:19:10.484Z,16.60
2018-07-03T02:21:39.670Z,16.60
2018-07-03T02:24:08.662Z,16.60
2018-07-03T02:26:38.181Z,16.50
2018-07-03T02:29:07.579Z,16.50
2018-07-03T02:31:36.006Z,16.50
2018-07-03T02:34:05.342Z,16.50
2018-07-03T02:36:33.769Z,16.50
2018-07-03T02:39:02.294Z,16.50
2018-07-03T02:41:31.218Z,16.40
2018-07-03T02:43:59.717Z,16.40
2018-07-03T02:46:28.222Z,16.30
2018-07-03T02:48:56.993Z,16.30
2018-07-03T02:51:26.660Z,16.30
2018-07-03T02:53:56.422Z,16.30
2018-07-03T02:56:25.425Z,16.30
2018-07-03T02:58:54.317Z,16.00
2018-07-03T03:01:23.228Z,16.10
2018-07-03T03:03:52.720Z,16.00
2018-07-03T03:06:21.153Z,15.70
2018-07-03T03:24:19.854Z,14.40
2018-07-03T03:26:49.123Z,14.40
2018-07-03T03:29:17.589Z,14.40
2018-07-03T03:31:46.633Z,14.50
2018-07-03T03:34:15.165Z,14.50
2018-07-03T03:36:43.940Z,14.60
2018-07-03T03:39:16.865Z,14.70
2018-07-03T03:41:45.373Z,14.80
2018-07-03T03:53:59.766Z,14.80
2018-07-03T03:56:29.258Z,14.40
2018-07-03T03:58:58.009Z,14.50
2018-07-03T04:01:27.109Z,14.70
2018-07-03T04:03:55.549Z,14.90
2018-07-03T04:06:24.325Z,14.90
2018-07-03T04:08:52.786Z,14.90
2018-07-03T04:11:21.646Z,15.10
2018-07-03T04:13:50.402Z,15.10
2018-07-03T04:16:19.917Z,15.00
2018-07-03T04:18:53.209Z,15.00
2018-07-03T04:21:21.629Z,15.00
2018-07-03T04:23:50.761Z,15.00
2018-07-03T04:26:19.272Z,14.90
2018-07-03T04:28:47.686Z,14.90
2018-07-03T04:31:16.124Z,15.00
2018-07-03T04:33:44.539Z,15.10
2018-07-03T04:36:13.893Z,15.10
2018-07-03T04:38:43.033Z,15.20
2018-07-03T04:41:13.021Z,15.10
2018-07-03T04:43:46.800Z,15.30
2018-07-03T04:46:16.005Z,15.20
2018-07-03T04:48:45.132Z,15.20
2018-07-03T04:51:14.411Z,15.20
2018-07-03T04:53:42.832Z,15.30
2018-07-03T04:56:11.421Z,15.40
2018-07-03T05:01:09.838Z,15.50
2018-07-03T05:03:38.429Z,15.60
2018-07-03T05:06:06.899Z,15.60
2018-07-03T05:08:39.136Z,15.60
2018-07-03T05:11:07.757Z,15.80
2018-07-03T05:13:36.286Z,16.00
2018-07-03T05:16:05.031Z,16.10
2018-07-03T05:21:02.365Z,16.20
2018-07-03T05:23:31.813Z,16.30
2018-07-03T05:26:07.832Z,16.40
2018-07-03T05:28:36.329Z,16.70
2018-07-03T05:31:10.278Z,16.80
2018-07-03T05:33:38.805Z,16.80
2018-07-03T05:36:09.739Z,17.10
2018-07-03T05:38:38.287Z,17.10
2018-07-03T05:41:06.697Z,17.30
2018-07-03T05:43:35.737Z,17.30
2018-07-03T05:46:04.405Z,17.10
2018-07-03T05:48:37.846Z,17.10
2018-07-03T05:51:06.332Z,17.40
2018-07-03T05:53:36.565Z,17.60
2018-07-03T05:56:05.065Z,17.70
2018-07-03T05:58:33.845Z,17.60
2018-07-03T06:01:03.346Z,17.60
2018-07-03T06:03:31.833Z,17.80
2018-07-03T06:06:00.274Z,18.00
2018-07-03T06:08:29.117Z,18.10
2018-07-03T06:10:58.877Z,18.20
2018-07-03T06:13:27.315Z,18.20
2018-07-03T06:15:56.463Z,18.30
2018-07-03T06:18:27.624Z,18.30
2018-07-03T06:20:56.070Z,18.50
2018-07-03T06:23:24.757Z,18.70
2018-07-03T06:25:53.249Z,19.00
2018-07-03T06:28:21.685Z,19.10
2018-07-03T06:30:50.267Z,19.30
2018-07-03T06:33:19.240Z,19.50
2018-07-03T06:35:48.889Z,19.90
2018-07-03T06:38:17.330Z,20.20
2018-07-03T06:40:46.681Z,20.50
2018-07-03T06:43:15.408Z,20.70
2018-07-03T06:45:43.894Z,20.70
2018-07-03T06:48:17.061Z,20.80
2018-07-03T06:50:45.995Z,20.90
2018-07-03T06:53:14.464Z,20.90
2018-07-03T06:55:43.225Z,20.80
2018-07-03T06:58:12.492Z,21.00
2018-07-03T07:00:40.912Z,21.30
2018-07-03T07:03:10.973Z,21.50
2018-07-03T07:05:39.817Z,21.50
2018-07-03T07:08:09.218Z,21.70
2018-07-03T07:10:37.851Z,21.60
2018-07-03T07:13:11.170Z,21.70
2018-07-03T07:15:39.802Z,21.90
2018-07-03T07:18:08.682Z,22.10
2018-07-03T07:20:37.800Z,22.40
2018-07-03T07:23:06.563Z,22.50
2018-07-03T07:25:35.444Z,22.70
2018-07-03T07:28:04.517Z,23.00
2018-07-03T07:30:33.019Z,23.20
2018-07-03T07:33:01.481Z,23.40
2018-07-03T07:35:30.421Z,23.60
2018-07-03T07:38:03.054Z,23.60
2018-07-03T07:40:31.582Z,23.70
2018-07-03T07:43:00.118Z,23.70
2018-07-03T07:45:28.589Z,23.70
2018-07-03T07:47:59.113Z,23.80
2018-07-03T07:50:27.569Z,23.80
2018-07-03T07:53:01.766Z,24.00
2018-07-03T07:55:30.387Z,23.90
2018-07-03T07:58:03.329Z,24.10
2018-07-03T08:00:32.392Z,24.20
2018-07-03T08:03:00.954Z,24.40
2018-07-03T08:05:29.631Z,24.60
2018-07-03T08:07:58.061Z,24.80
2018-07-03T08:10:28.595Z,24.90
2018-07-03T08:12:57.605Z,24.90
2018-07-03T08:15:26.304Z,24.80
2018-07-03T08:17:54.745Z,24.90
2018-07-03T08:20:25.742Z,24.90
2018-07-03T08:22:54.909Z,24.70
2018-07-03T08:25:24.305Z,24.80
2018-07-03T08:28:02.136Z,24.90
2018-07-03T08:30:30.762Z,25.10
2018-07-03T08:33:00.200Z,25.10
2018-07-03T08:35:29.634Z,25.50
2018-07-03T08:37:58.122Z,25.60
2018-07-03T08:40:27.349Z,25.70
2018-07-03T08:45:24.529Z,25.90
2018-07-03T08:47:54.173Z,25.90
2018-07-03T08:50:27.766Z,25.90
2018-07-03T08:52:56.265Z,26.10
2018-07-03T08:55:25.301Z,26.20
2018-07-03T08:57:54.411Z,26.40
2018-07-03T09:00:23.761Z,26.60
2018-07-03T09:02:57.754Z,26.80
2018-07-03T09:05:26.238Z,26.90
2018-07-03T09:07:54.761Z,26.80
2018-07-03T09:10:28.428Z,26.80
2018-07-03T09:13:02.890Z,26.90
2018-07-03T09:15:36.021Z,27.30
2018-07-03T09:18:04.486Z,27.50
2018-07-03T09:20:33.232Z,27.60
2018-07-03T09:23:02.088Z,27.50
2018-07-03T09:25:30.608Z,27.50
2018-07-03T09:27:59.848Z,27.50
2018-07-03T09:30:29.140Z,27.60
2018-07-03T09:32:58.025Z,27.70
2018-07-03T09:35:26.544Z,27.90
2018-07-03T09:37:55.776Z,28.00
2018-07-03T09:40:24.556Z,28.30
2018-07-03T09:42:53.806Z,28.40
2018-07-03T09:45:22.236Z,28.40
2018-07-03T09:47:51.269Z,28.40
2018-07-03T09:50:19.813Z,28.50
2018-07-03T09:52:49.177Z,28.70
2018-07-03T09:55:17.616Z,28.80
2018-07-03T09:57:51.838Z,29.00
2018-07-03T10:00:24.507Z,29.20
2018-07-03T10:02:53.245Z,29.20
2018-07-03T10:05:22.104Z,29.20
2018-07-03T10:07:50.847Z,29.20
2018-07-03T10:10:25.054Z,29.20
2018-07-03T10:12:55.770Z,29.30
2018-07-03T10:15:25.279Z,29.30
2018-07-03T10:17:54.212Z,29.00
2018-07-03T10:20:23.274Z,28.80
2018-07-03T10:22:51.977Z,28.70
2018-07-03T10:25:20.554Z,28.70
2018-07-03T10:27:53.219Z,28.60
2018-07-03T10:30:21.703Z,28.50
2018-07-03T10:32:51.289Z,28.40
2018-07-03T10:35:20.266Z,28.40
2018-07-03T10:37:48.691Z,28.40
2018-07-03T10:40:18.276Z,28.50
2018-07-03T10:42:47.400Z,28.60
2018-07-03T10:45:16.113Z,28.60
2018-07-03T10:47:44.719Z,28.60
2018-07-03T10:50:13.726Z,28.60
2018-07-03T10:52:42.176Z,28.60
2018-07-03T10:55:11.382Z,28.40
2018-07-03T10:57:39.825Z,28.40
2018-07-03T11:00:09.700Z,28.40
2018-07-03T11:02:38.424Z,28.40
2018-07-03T11:05:06.990Z,28.50
2018-07-03T11:07:35.480Z,28.60
2018-07-03T11:10:09.098Z,28.70
2018-07-03T11:12:37.640Z,28.70
2018-07-03T11:15:06.354Z,28.50
2018-07-03T11:17:34.805Z,28.20
2018-07-03T11:20:03.965Z,28.10
2018-07-03T11:22:32.415Z,28.20
2018-07-03T11:25:01.359Z,28.40
2018-07-03T11:27:29.834Z,28.40
2018-07-03T11:29:58.645Z,28.30
2018-07-03T11:32:27.093Z,28.20
2018-07-03T11:34:55.626Z,28.20
2018-07-03T11:39:52.292Z,28.20
2018-07-03T11:42:20.740Z,28.10
2018-07-03T11:44:49.899Z,28.10
2018-07-03T11:47:22.827Z,28.20
2018-07-03T11:49:55.616Z,28.30
2018-07-03T11:52:24.447Z,28.10
2018-07-03T11:54:53.659Z,28.10
2018-07-03T11:57:22.191Z,28.20
2018-07-03T11:59:50.637Z,28.20
2018-07-03T12:02:19.441Z,28.30
2018-07-03T12:04:48.523Z,28.30
2018-07-03T12:07:17.009Z,28.10
2018-07-03T12:09:45.704Z,28.10
2018-07-03T12:12:14.174Z,28.20
2018-07-03T12:14:42.640Z,28.40
2018-07-03T12:17:11.110Z,28.50
2018-07-03T12:19:39.710Z,28.80
2018-07-03T12:22:08.254Z,29.00
2018-07-03T12:24:36.703Z,29.20
2018-07-03T12:27:05.867Z,29.30
2018-07-03T12:29:35.347Z,29.50
2018-07-03T12:32:03.868Z,29.70
2018-07-03T12:34:32.347Z,29.60
2018-07-03T12:37:00.765Z,29.70
2018-07-03T12:39:29.305Z,29.60
2018-07-03T12:41:57.757Z,29.40
2018-07-03T12:44:26.388Z,29.20
2018-07-03T12:46:54.869Z,29.00
2018-07-03T12:49:23.362Z,28.90
2018-07-03T12:51:51.826Z,29.10
2018-07-03T12:54:20.354Z,29.30
2018-07-03T12:56:48.816Z,29.40
2018-07-03T12:59:17.297Z,29.40
2018-07-03T13:01:46.097Z,29.20
2018-07-03T13:06:43.034Z,29.30
2018-07-03T13:09:12.428Z,29.40
2018-07-03T13:11:41.141Z,29.60
2018-07-03T13:14:10.397Z,29.70
2018-07-03T13:16:39.114Z,29.80
2018-07-03T13:19:07.692Z,29.80
2018-07-03T13:21:36.186Z,29.90
2018-07-03T13:24:04.737Z,30.00
2018-07-03T13:26:34.147Z,30.00
2018-07-03T13:29:02.607Z,29.90
2018-07-03T13:31:31.063Z,30.00
2018-07-03T13:33:59.493Z,29.80
2018-07-03T13:36:27.974Z,29.80
2018-07-03T13:38:57.078Z,29.80
2018-07-03T13:41:26.162Z,29.90
2018-07-03T13:43:54.705Z,30.00
2018-07-03T13:46:23.105Z,30.00
2018-07-03T13:48:51.638Z,30.10
2018-07-03T13:51:20.497Z,30.20
2018-07-03T13:53:48.943Z,30.10
2018-07-03T13:56:17.405Z,30.10
2018-07-03T13:58:46.623Z,30.10
2018-07-03T14:01:15.145Z,30.10
2018-07-03T14:03:43.572Z,30.00
2018-07-03T14:06:12.312Z,29.90
2018-07-03T14:08:40.837Z,29.70
2018-07-03T14:11:10.444Z,29.70
2018-07-03T14:13:39.096Z,29.80
2018-07-03T14:16:07.599Z,29.80
2018-07-03T14:18:36.066Z,30.00
2018-07-03T14:21:04.501Z,29.90
2018-07-03T14:23:32.950Z,29.90
2018-07-03T14:26:02.287Z,29.90
2018-07-03T14:28:30.708Z,29.90
2018-07-03T14:30:59.231Z,29.90
2018-07-03T14:33:27.625Z,29.80
2018-07-03T14:35:56.515Z,29.70
2018-07-03T14:38:24.990Z,29.70
2018-07-03T14:40:53.417Z,29.70
2018-07-03T14:43:21.900Z,30.00
2018-07-03T14:45:51.116Z,29.90
2018-07-03T14:48:19.550Z,30.00
2018-07-03T14:50:48.085Z,30.10
2018-07-03T14:53:16.537Z,30.10
2018-07-03T14:55:45.106Z,30.10
2018-07-03T14:58:13.845Z,30.10
2018-07-03T15:00:42.375Z,30.10
2018-07-03T15:03:10.842Z,30.20
2018-07-03T15:05:39.338Z,30.30
2018-07-03T15:08:07.801Z,30.50
2018-07-03T15:10:36.685Z,30.60
2018-07-03T15:13:06.185Z,30.50
2018-07-03T15:15:35.396Z,30.50
2018-07-03T15:18:03.860Z,30.40
2018-07-03T15:20:32.989Z,30.40
2018-07-03T15:23:02.168Z,30.20
2018-07-03T15:25:30.678Z,30.10
2018-07-03T15:27:59.140Z,30.00
2018-07-03T15:30:28.174Z,29.90
2018-07-03T15:33:01.070Z,29.70
2018-07-03T15:35:29.576Z,29.40
2018-07-03T15:37:58.465Z,29.30
2018-07-03T15:40:26.969Z,29.30
2018-07-03T15:42:55.413Z,29.20
2018-07-03T15:45:24.977Z,29.20
2018-07-03T15:47:53.414Z,29.20
2018-07-03T15:50:22.079Z,29.10
2018-07-03T15:52:50.528Z,29.00
2018-07-03T15:55:19.024Z,28.90
2018-07-03T15:57:47.823Z,28.90
2018-07-03T16:00:16.302Z,28.80
2018-07-03T16:03:54.743Z,28.70
2018-07-03T16:06:33.157Z,28.70
2018-07-03T16:09:09.117Z,28.60
2018-07-03T16:11:38.024Z,28.60
2018-07-03T16:14:06.816Z,28.60
2018-07-03T16:16:35.279Z,28.60
2018-07-03T16:19:08.969Z,28.60
2018-07-03T16:21:37.677Z,28.60
2018-07-03T16:24:06.449Z,28.60
2018-07-03T16:26:34.929Z,28.50
2018-07-03T16:29:03.646Z,28.50
2018-07-03T16:31:32.908Z,28.40
2018-07-03T16:34:01.378Z,28.40
2018-07-03T16:36:29.897Z,28.30
2018-07-03T16:38:58.913Z,28.40
2018-07-03T16:41:27.420Z,28.30
2018-07-03T16:43:55.915Z,28.30
2018-07-03T16:46:25.126Z,28.10
2018-07-03T16:48:53.565Z,28.10
2018-07-03T16:51:22.568Z,28.20
2018-07-03T16:53:51.016Z,28.10
2018-07-03T16:56:24.057Z,28.10
2018-07-03T16:58:52.597Z,28.10
2018-07-03T17:01:21.078Z,27.90
2018-07-03T17:03:49.617Z,27.90
2018-07-03T17:06:19.081Z,27.80
2018-07-03T17:08:47.593Z,27.80
2018-07-03T17:11:16.732Z,27.70
2018-07-03T17:13:45.500Z,27.70
2018-07-03T17:16:13.926Z,27.60
2018-07-03T17:18:47.878Z,27.70
2018-07-03T17:21:16.389Z,27.70
2018-07-03T17:23:45.537Z,27.70
2018-07-03T17:26:14.106Z,27.70
2018-07-03T17:28:42.593Z,27.60
2018-07-03T17:31:11.076Z,27.50
2018-07-03T17:33:39.534Z,27.50
2018-07-03T17:36:08.663Z,27.40
2018-07-03T17:38:37.888Z,27.30
2018-07-03T17:41:17.731Z,27.20
2018-07-03T17:44:08.836Z,27.20
2018-07-03T17:46:37.266Z,27.20
2018-07-03T17:49:06.364Z,27.30
2018-07-03T17:51:34.905Z,27.30
2018-07-03T17:54:03.652Z,27.20
2018-07-03T18:09:34.391Z,27.20
2018-07-03T18:12:06.934Z,26.40
2018-07-03T18:14:35.937Z,26.50
2018-07-03T18:17:05.006Z,26.60
2018-07-03T18:22:07.487Z,26.70
2018-07-03T18:24:43.950Z,26.70
2018-07-03T18:27:13.340Z,26.70
2018-07-03T18:29:43.027Z,26.70
2018-07-03T18:41:57.639Z,26.70
2018-07-03T18:44:30.483Z,26.00
2018-07-03T18:47:03.731Z,26.00
2018-07-03T18:49:32.980Z,26.10
2018-07-03T18:52:03.662Z,26.20
2018-07-03T18:54:41.310Z,26.20
2018-07-03T18:57:14.867Z,26.20
2018-07-03T18:59:43.600Z,26.10
2018-07-03T19:02:13.363Z,26.10
2018-07-03T19:04:43.373Z,26.10
2018-07-03T19:07:12.930Z,26.00
2018-07-03T19:09:42.213Z,25.90
2018-07-03T19:12:13.295Z,25.90
2018-07-03T19:14:46.757Z,25.80
2018-07-03T19:17:15.507Z,25.80
2018-07-03T19:19:48.864Z,25.70
2018-07-03T19:22:19.024Z,25.70
2018-07-03T19:24:52.919Z,25.60
2018-07-03T19:27:21.864Z,25.50
2018-07-03T19:29:50.443Z,25.40
2018-07-03T19:32:19.044Z,25.40
2018-07-03T19:34:48.056Z,25.30
2018-07-03T19:37:18.134Z,25.40
2018-07-03T19:52:51.791Z,25.30
2018-07-03T19:55:20.478Z,24.10
2018-07-03T19:57:54.109Z,24.20
2018-07-03T20:00:27.254Z,24.30
2018-07-03T20:02:55.762Z,24.40
2018-07-03T20:05:29.089Z,24.50
2018-07-03T20:07:59.379Z,24.50
2018-07-03T20:10:27.998Z,24.50
2018-07-03T20:13:06.180Z,24.60
2018-07-03T20:15:36.922Z,24.50
2018-07-03T20:31:10.429Z,24.40
2018-07-03T20:33:39.757Z,23.50
2018-07-03T20:36:09.343Z,23.50
2018-07-03T20:51:48.050Z,23.60
2018-07-03T20:54:18.007Z,23.00
2018-07-03T20:56:47.749Z,23.00
2018-07-03T20:59:21.490Z,23.10
2018-07-03T21:01:50.031Z,23.20
2018-07-03T21:04:20.008Z,23.20
2018-07-03T21:06:53.443Z,23.20
2018-07-03T21:09:22.809Z,23.20
2018-07-03T21:11:53.553Z,23.10
2018-07-03T21:14:22.167Z,23.10
2018-07-03T21:16:51.208Z,23.00
2018-07-03T21:19:24.068Z,23.00
2018-07-03T21:21:53.748Z,23.00
2018-07-03T21:24:23.152Z,23.10
2018-07-03T21:26:51.702Z,23.00
2018-07-03T21:29:20.166Z,22.80
2018-07-03T21:31:49.578Z,22.80
2018-07-03T21:34:17.995Z,22.70
2018-07-03T21:36:46.486Z,22.60
2018-07-03T21:39:16.529Z,22.60
2018-07-03T21:41:44.949Z,22.60
2018-07-03T21:44:17.356Z,22.60
2018-07-03T21:46:46.969Z,22.60
2018-07-03T21:49:16.561Z,22.60
2018-07-03T21:51:45.072Z,22.60
2018-07-03T21:54:13.757Z,22.50
2018-07-03T21:56:42.196Z,22.50
2018-07-03T22:01:38.996Z,22.30
2018-07-03T22:04:08.039Z,22.20
2018-07-03T22:06:37.212Z,22.10
2018-07-03T22:09:08.916Z,22.00
2018-07-03T22:11:38.259Z,21.80
2018-07-03T22:14:07.826Z,21.80
2018-07-03T22:16:36.276Z,21.80
2018-07-03T22:19:09.097Z,21.70
2018-07-03T22:21:37.915Z,21.80
2018-07-03T22:24:07.299Z,21.70
2018-07-03T22:26:35.741Z,21.80
2018-07-03T22:29:04.192Z,21.80
2018-07-03T22:31:33.151Z,21.80
2018-07-03T22:34:05.707Z,21.80
2018-07-03T22:46:19.176Z,21.80
2018-07-03T22:48:47.760Z,21.10
2018-07-03T22:51:16.325Z,21.00
2018-07-03T22:53:45.538Z,21.10
2018-07-03T22:56:14.693Z,21.20
2018-07-03T22:58:43.777Z,21.20
2018-07-03T23:01:12.937Z,21.30
2018-07-03T23:03:42.204Z,21.30
2018-07-03T23:06:11.135Z,21.30
2018-07-03T23:08:39.567Z,21.30
2018-07-03T23:11:08.009Z,21.30
2018-07-03T23:13:36.985Z,21.20
2018-07-03T23:16:05.452Z,21.20
2018-07-03T23:18:33.948Z,21.10
2018-07-03T23:21:03.287Z,21.10
2018-07-03T23:23:31.692Z,21.10
2018-07-03T23:26:00.430Z,21.10
2018-07-03T23:28:28.943Z,21.00
2018-07-03T23:30:57.390Z,21.00
2018-07-03T23:33:25.820Z,21.00
2018-07-03T23:35:54.264Z,21.00
2018-07-03T23:38:22.695Z,21.00
2018-07-03T23:40:51.885Z,20.90
2018-07-03T23:43:20.301Z,20.80
2018-07-03T23:45:52.973Z,20.80
2018-07-03T23:48:34.312Z,20.80
